ASX221 LOWW-LSZH
Flight info
| Callsign | ASX221 |
|---|---|
| Flight time | 1h 4m |
| Altitude | 30000 |
| Route | SOVIL1C/29 SOVIL DCT SITNI DCT BAGSI DCT MATIG DCT TRAUN L856 NEGRA |
| Aircraft | A320/M-SDE3FGHIRWY/LB1 |
Departure
| Time | 2026-05-07 19:00 |
|---|---|
| Airport | Vienna International Airport (LOWW) |
Arrival
| Time | 2026-05-07 20:04 |
|---|---|
| Airport | Zürich Airport (LSZH) |
| Time | Latitude | Longitude | Altitude | Speed | Heading |
|---|---|---|---|---|---|
| 2026-05-07 18:34 | 48.11695 | 16.56848 | 611 ft | 0 kts | 26° |
| 2026-05-07 18:49 | 48.11693 | 16.56847 | 610 ft | 2 kts | 26° |
| 2026-05-07 18:49 | 48.11670 | 16.56829 | 626 ft | 4 kts | 27° |
| 2026-05-07 18:49 | 48.11646 | 16.56810 | 626 ft | 4 kts | 35° |
| 2026-05-07 18:49 | 48.11628 | 16.56784 | 626 ft | 4 kts | 77° |
| 2026-05-07 18:50 | 48.11628 | 16.56769 | 626 ft | 0 kts | 116° |
| 2026-05-07 18:53 | 48.11622 | 16.56787 | 622 ft | 6 kts | 116° |
| 2026-05-07 18:53 | 48.11606 | 16.56834 | 612 ft | 4 kts | 116° |
| 2026-05-07 18:54 | 48.11597 | 16.56861 | 619 ft | 3 kts | 116° |
| 2026-05-07 18:54 | 48.11579 | 16.56918 | 614 ft | 7 kts | 116° |
| 2026-05-07 18:54 | 48.11561 | 16.56973 | 610 ft | 5 kts | 116° |
| 2026-05-07 18:54 | 48.11551 | 16.57006 | 616 ft | 2 kts | 116° |
| 2026-05-07 18:55 | 48.11547 | 16.57018 | 610 ft | 0 kts | 116° |
| 2026-05-07 18:55 | 48.11539 | 16.57041 | 619 ft | 6 kts | 116° |
| 2026-05-07 18:55 | 48.11526 | 16.57083 | 618 ft | 3 kts | 116° |
| 2026-05-07 18:55 | 48.11508 | 16.57136 | 616 ft | 10 kts | 116° |
| 2026-05-07 18:56 | 48.11482 | 16.57216 | 617 ft | 8 kts | 116° |
| 2026-05-07 18:56 | 48.11462 | 16.57277 | 616 ft | 5 kts | 115° |
| 2026-05-07 18:56 | 48.11448 | 16.57322 | 621 ft | 6 kts | 115° |
| 2026-05-07 18:56 | 48.11401 | 16.57382 | 612 ft | 9 kts | 176° |
| 2026-05-07 18:57 | 48.11339 | 16.57350 | 619 ft | 10 kts | 205° |
| 2026-05-07 18:57 | 48.11267 | 16.57297 | 618 ft | 12 kts | 205° |
| 2026-05-07 18:57 | 48.11194 | 16.57330 | 614 ft | 12 kts | 125° |
| 2026-05-07 18:57 | 48.11160 | 16.57425 | 610 ft | 9 kts | 115° |
| 2026-05-07 18:58 | 48.11124 | 16.57540 | 612 ft | 15 kts | 116° |
| 2026-05-07 18:58 | 48.11047 | 16.57644 | 610 ft | 15 kts | 187° |
| 2026-05-07 18:58 | 48.10950 | 16.57575 | 614 ft | 16 kts | 208° |
| 2026-05-07 18:58 | 48.10925 | 16.57479 | 610 ft | 11 kts | 302° |
| 2026-05-07 18:59 | 48.10966 | 16.57376 | 614 ft | 14 kts | 295° |
| 2026-05-07 18:59 | 48.11088 | 16.56989 | 621 ft | 75 kts | 296° |
| 2026-05-07 18:59 | 48.11408 | 16.56005 | 613 ft | 133 kts | 295° |
| 2026-05-07 18:59 | 48.11860 | 16.54550 | 759 ft | 164 kts | 292° |
| 2026-05-07 19:00 | 48.12269 | 16.53025 | 1508 ft | 157 kts | 278° |
| 2026-05-07 19:00 | 48.12182 | 16.51420 | 2122 ft | 157 kts | 248° |
| 2026-05-07 19:00 | 48.11654 | 16.50001 | 2561 ft | 166 kts | 234° |
| 2026-05-07 19:00 | 48.10827 | 16.48585 | 2859 ft | 190 kts | 229° |
| 2026-05-07 19:01 | 48.10055 | 16.46857 | 3175 ft | 212 kts | 243° |
| 2026-05-07 19:01 | 48.09291 | 16.44819 | 3542 ft | 237 kts | 239° |
| 2026-05-07 19:01 | 48.08322 | 16.42669 | 4015 ft | 260 kts | 236° |
| 2026-05-07 19:01 | 48.07239 | 16.40445 | 4828 ft | 268 kts | 235° |
| 2026-05-07 19:02 | 48.06111 | 16.38182 | 5713 ft | 273 kts | 235° |
| 2026-05-07 19:02 | 48.04971 | 16.35905 | 6638 ft | 274 kts | 235° |
| 2026-05-07 19:02 | 48.03968 | 16.33516 | 7488 ft | 275 kts | 248° |
| 2026-05-07 19:02 | 48.03413 | 16.30786 | 8343 ft | 276 kts | 263° |
| 2026-05-07 19:03 | 48.03342 | 16.27915 | 9195 ft | 278 kts | 273° |
| 2026-05-07 19:03 | 48.03401 | 16.25010 | 10058 ft | 281 kts | 272° |
| 2026-05-07 19:03 | 48.03458 | 16.22015 | 10493 ft | 299 kts | 272° |
| 2026-05-07 19:03 | 48.03518 | 16.18790 | 10791 ft | 320 kts | 272° |
| 2026-05-07 19:04 | 48.03577 | 16.15422 | 11433 ft | 327 kts | 272° |
| 2026-05-07 19:04 | 48.03632 | 16.12005 | 12197 ft | 330 kts | 271° |
| 2026-05-07 19:04 | 48.03686 | 16.08561 | 12988 ft | 333 kts | 271° |
| 2026-05-07 19:04 | 48.03741 | 16.05088 | 13763 ft | 336 kts | 271° |
| 2026-05-07 19:05 | 48.03798 | 16.01579 | 14445 ft | 339 kts | 270° |
| 2026-05-07 19:05 | 48.03853 | 15.98042 | 15098 ft | 343 kts | 270° |
| 2026-05-07 19:05 | 48.03909 | 15.94468 | 15747 ft | 346 kts | 270° |
| 2026-05-07 19:05 | 48.03966 | 15.90855 | 16389 ft | 349 kts | 270° |
| 2026-05-07 19:06 | 48.04022 | 15.87205 | 17002 ft | 353 kts | 270° |
| 2026-05-07 19:06 | 48.04127 | 15.79801 | 18286 ft | 360 kts | 270° |
| 2026-05-07 19:06 | 48.04161 | 15.77317 | 18654 ft | 362 kts | 270° |
| 2026-05-07 19:07 | 48.04228 | 15.72255 | 19411 ft | 366 kts | 270° |
| 2026-05-07 19:07 | 48.04277 | 15.68443 | 19978 ft | 369 kts | 270° |
| 2026-05-07 19:07 | 48.04326 | 15.64601 | 20557 ft | 371 kts | 270° |
| 2026-05-07 19:07 | 48.04376 | 15.60734 | 21126 ft | 374 kts | 270° |
| 2026-05-07 19:08 | 48.04423 | 15.56835 | 21687 ft | 376 kts | 270° |
| 2026-05-07 19:08 | 48.04469 | 15.52966 | 22238 ft | 379 kts | 270° |
| 2026-05-07 19:08 | 48.04515 | 15.49013 | 22785 ft | 382 kts | 269° |
| 2026-05-07 19:08 | 48.04557 | 15.45035 | 23335 ft | 384 kts | 269° |
| 2026-05-07 19:09 | 48.04599 | 15.41029 | 23818 ft | 387 kts | 269° |
| 2026-05-07 19:09 | 48.04643 | 15.36997 | 24245 ft | 390 kts | 269° |
| 2026-05-07 19:09 | 48.04697 | 15.32930 | 24633 ft | 393 kts | 270° |
| 2026-05-07 19:09 | 48.04764 | 15.28831 | 25039 ft | 396 kts | 270° |
| 2026-05-07 19:10 | 48.04836 | 15.24712 | 25465 ft | 398 kts | 270° |
| 2026-05-07 19:10 | 48.04910 | 15.20571 | 25867 ft | 399 kts | 270° |
| 2026-05-07 19:10 | 48.04982 | 15.16418 | 26265 ft | 401 kts | 270° |
| 2026-05-07 19:10 | 48.05028 | 15.13652 | 26528 ft | 402 kts | 270° |
| 2026-05-07 19:11 | 48.05092 | 15.09466 | 26917 ft | 404 kts | 270° |
| 2026-05-07 19:11 | 48.05150 | 15.05265 | 27310 ft | 406 kts | 269° |
| 2026-05-07 19:11 | 48.05206 | 15.01040 | 27755 ft | 406 kts | 270° |
| 2026-05-07 19:11 | 48.05259 | 14.96825 | 28188 ft | 406 kts | 270° |
| 2026-05-07 19:12 | 48.05311 | 14.92602 | 28566 ft | 407 kts | 270° |
| 2026-05-07 19:12 | 48.05363 | 14.88364 | 28927 ft | 409 kts | 270° |
| 2026-05-07 19:12 | 48.05414 | 14.84105 | 29270 ft | 410 kts | 270° |
| 2026-05-07 19:12 | 48.05463 | 14.79831 | 29607 ft | 412 kts | 269° |
| 2026-05-07 19:13 | 48.05502 | 14.75543 | 29936 ft | 414 kts | 269° |
| 2026-05-07 19:13 | 48.05539 | 14.71252 | 30049 ft | 408 kts | 269° |
| 2026-05-07 19:13 | 48.05572 | 14.67087 | 30051 ft | 395 kts | 269° |
| 2026-05-07 19:13 | 48.05599 | 14.63003 | 30061 ft | 391 kts | 269° |
| 2026-05-07 19:14 | 48.05648 | 14.54919 | 30063 ft | 388 kts | 269° |
| 2026-05-07 19:14 | 48.05504 | 14.46865 | 30055 ft | 388 kts | 266° |
| 2026-05-07 19:15 | 48.05175 | 14.38825 | 30057 ft | 387 kts | 265° |
| 2026-05-07 19:15 | 48.04842 | 14.30789 | 30060 ft | 387 kts | 266° |
| 2026-05-07 19:16 | 48.04542 | 14.22761 | 30051 ft | 387 kts | 266° |
| 2026-05-07 19:16 | 48.04260 | 14.14790 | 30055 ft | 386 kts | 266° |
| 2026-05-07 19:17 | 48.03968 | 14.06781 | 30056 ft | 386 kts | 266° |
| 2026-05-07 19:17 | 48.03669 | 13.98778 | 30057 ft | 386 kts | 266° |
| 2026-05-07 19:18 | 48.03359 | 13.90776 | 30051 ft | 385 kts | 266° |
| 2026-05-07 19:18 | 48.03047 | 13.82797 | 30049 ft | 385 kts | 266° |
| 2026-05-07 19:19 | 48.02727 | 13.74799 | 30046 ft | 385 kts | 266° |
| 2026-05-07 19:19 | 48.02402 | 13.66811 | 30043 ft | 386 kts | 266° |
| 2026-05-07 19:20 | 48.02072 | 13.58801 | 30040 ft | 387 kts | 266° |
| 2026-05-07 19:20 | 48.01733 | 13.50780 | 30043 ft | 387 kts | 266° |
| 2026-05-07 19:21 | 48.01389 | 13.42752 | 30045 ft | 388 kts | 266° |
| 2026-05-07 19:21 | 48.01047 | 13.34718 | 30048 ft | 388 kts | 266° |
| 2026-05-07 19:22 | 48.00703 | 13.26683 | 30042 ft | 388 kts | 267° |
| 2026-05-07 19:22 | 48.00336 | 13.18641 | 30040 ft | 389 kts | 266° |
| 2026-05-07 19:23 | 47.99963 | 13.10577 | 30044 ft | 389 kts | 266° |
| 2026-05-07 19:23 | 47.99591 | 13.02511 | 30049 ft | 390 kts | 266° |
| 2026-05-07 19:24 | 47.99195 | 12.94436 | 30051 ft | 390 kts | 266° |
| 2026-05-07 19:24 | 47.98674 | 12.86370 | 30052 ft | 390 kts | 265° |
| 2026-05-07 19:25 | 47.98106 | 12.78311 | 30051 ft | 390 kts | 265° |
| 2026-05-07 19:25 | 47.97551 | 12.70248 | 30051 ft | 391 kts | 265° |
| 2026-05-07 19:26 | 47.97004 | 12.62184 | 30049 ft | 391 kts | 265° |
| 2026-05-07 19:26 | 47.96473 | 12.54447 | 30043 ft | 391 kts | 265° |
| 2026-05-07 19:27 | 47.95919 | 12.46384 | 30041 ft | 391 kts | 264° |
| 2026-05-07 19:27 | 47.95352 | 12.38322 | 30047 ft | 390 kts | 264° |
| 2026-05-07 19:28 | 47.94779 | 12.30269 | 30056 ft | 390 kts | 264° |
| 2026-05-07 19:28 | 47.94198 | 12.22225 | 30055 ft | 390 kts | 264° |
| 2026-05-07 19:29 | 47.93612 | 12.14178 | 30054 ft | 390 kts | 264° |
| 2026-05-07 19:29 | 47.93022 | 12.06136 | 30052 ft | 390 kts | 264° |
| 2026-05-07 19:30 | 47.92429 | 11.98097 | 30049 ft | 390 kts | 264° |
| 2026-05-07 19:30 | 47.91839 | 11.90067 | 30050 ft | 390 kts | 264° |
| 2026-05-07 19:31 | 47.91234 | 11.82027 | 30045 ft | 390 kts | 264° |
| 2026-05-07 19:31 | 47.90626 | 11.74040 | 30043 ft | 391 kts | 264° |
| 2026-05-07 19:32 | 47.90012 | 11.65996 | 30047 ft | 391 kts | 264° |
| 2026-05-07 19:32 | 47.89395 | 11.57951 | 30051 ft | 391 kts | 264° |
| 2026-05-07 19:33 | 47.88765 | 11.49913 | 30053 ft | 391 kts | 264° |
| 2026-05-07 19:33 | 47.88131 | 11.41871 | 30054 ft | 391 kts | 264° |
| 2026-05-07 19:34 | 47.87486 | 11.33835 | 30039 ft | 391 kts | 264° |
| 2026-05-07 19:34 | 47.86838 | 11.25802 | 30054 ft | 390 kts | 264° |
| 2026-05-07 19:35 | 47.86199 | 11.17782 | 30056 ft | 390 kts | 264° |
| 2026-05-07 19:35 | 47.85550 | 11.09775 | 30055 ft | 390 kts | 264° |
| 2026-05-07 19:36 | 47.84890 | 11.01766 | 30064 ft | 390 kts | 264° |
| 2026-05-07 19:36 | 47.84222 | 10.93767 | 30063 ft | 389 kts | 264° |
| 2026-05-07 19:37 | 47.83548 | 10.85771 | 30062 ft | 389 kts | 264° |
| 2026-05-07 19:37 | 47.82874 | 10.77784 | 30064 ft | 389 kts | 264° |
| 2026-05-07 19:38 | 47.82199 | 10.69804 | 30063 ft | 389 kts | 264° |
| 2026-05-07 19:38 | 47.81516 | 10.61827 | 30054 ft | 389 kts | 263° |
| 2026-05-07 19:39 | 47.80830 | 10.53905 | 30040 ft | 389 kts | 264° |
| 2026-05-07 19:39 | 47.80129 | 10.45936 | 30049 ft | 389 kts | 264° |
| 2026-05-07 19:40 | 47.79431 | 10.37968 | 30046 ft | 389 kts | 264° |
| 2026-05-07 19:40 | 47.78724 | 10.29996 | 30039 ft | 389 kts | 263° |
| 2026-05-07 19:41 | 47.78009 | 10.22035 | 30043 ft | 389 kts | 263° |
| 2026-05-07 19:41 | 47.77287 | 10.14068 | 30022 ft | 388 kts | 264° |
| 2026-05-07 19:42 | 47.76566 | 10.06128 | 30031 ft | 387 kts | 264° |
| 2026-05-07 19:42 | 47.75839 | 9.98204 | 30037 ft | 387 kts | 264° |
| 2026-05-07 19:43 | 47.75105 | 9.90290 | 30040 ft | 386 kts | 263° |
| 2026-05-07 19:43 | 47.74354 | 9.82236 | 30062 ft | 404 kts | 263° |
| 2026-05-07 19:44 | 47.73968 | 9.78076 | 29934 ft | 408 kts | 263° |
| 2026-05-07 19:44 | 47.73579 | 9.73926 | 29229 ft | 405 kts | 263° |
| 2026-05-07 19:44 | 47.73190 | 9.69799 | 28527 ft | 402 kts | 263° |
| 2026-05-07 19:44 | 47.72884 | 9.65697 | 27876 ft | 398 kts | 268° |
| 2026-05-07 19:45 | 47.72774 | 9.61597 | 27241 ft | 395 kts | 268° |
| 2026-05-07 19:45 | 47.72660 | 9.57554 | 26629 ft | 392 kts | 268° |
| 2026-05-07 19:45 | 47.72544 | 9.53527 | 26027 ft | 389 kts | 268° |
| 2026-05-07 19:45 | 47.72425 | 9.49518 | 25435 ft | 387 kts | 267° |
| 2026-05-07 19:46 | 47.72125 | 9.45574 | 24873 ft | 384 kts | 257° |
| 2026-05-07 19:46 | 47.71261 | 9.41838 | 24317 ft | 382 kts | 245° |
| 2026-05-07 19:46 | 47.69880 | 9.38478 | 23781 ft | 381 kts | 233° |
| 2026-05-07 19:46 | 47.68213 | 9.35429 | 23117 ft | 381 kts | 232° |
| 2026-05-07 19:47 | 47.66555 | 9.32409 | 22582 ft | 372 kts | 232° |
| 2026-05-07 19:47 | 47.64951 | 9.29488 | 22063 ft | 356 kts | 232° |
| 2026-05-07 19:47 | 47.63417 | 9.26702 | 21588 ft | 341 kts | 232° |
| 2026-05-07 19:47 | 47.61950 | 9.24034 | 21146 ft | 327 kts | 232° |
| 2026-05-07 19:48 | 47.60577 | 9.21447 | 20713 ft | 316 kts | 237° |
| 2026-05-07 19:48 | 47.59529 | 9.18640 | 20294 ft | 317 kts | 248° |
| 2026-05-07 19:48 | 47.58849 | 9.15495 | 19865 ft | 316 kts | 258° |
| 2026-05-07 19:48 | 47.58461 | 9.12303 | 19441 ft | 315 kts | 259° |
| 2026-05-07 19:49 | 47.58069 | 9.09103 | 19016 ft | 316 kts | 259° |
| 2026-05-07 19:49 | 47.57671 | 9.05906 | 18598 ft | 316 kts | 260° |
| 2026-05-07 19:49 | 47.57521 | 9.02666 | 18155 ft | 316 kts | 271° |
| 2026-05-07 19:49 | 47.57705 | 8.99440 | 17710 ft | 316 kts | 274° |
| 2026-05-07 19:50 | 47.57928 | 8.96197 | 17288 ft | 314 kts | 275° |
| 2026-05-07 19:50 | 47.58181 | 8.92985 | 16872 ft | 313 kts | 276° |
| 2026-05-07 19:50 | 47.58459 | 8.89779 | 16468 ft | 312 kts | 276° |
| 2026-05-07 19:50 | 47.58736 | 8.86612 | 16060 ft | 311 kts | 273° |
| 2026-05-07 19:51 | 47.58682 | 8.83487 | 15674 ft | 308 kts | 261° |
| 2026-05-07 19:51 | 47.58157 | 8.80446 | 15288 ft | 307 kts | 248° |
| 2026-05-07 19:51 | 47.57180 | 8.77648 | 14893 ft | 307 kts | 236° |
| 2026-05-07 19:51 | 47.55835 | 8.75183 | 14505 ft | 310 kts | 229° |
| 2026-05-07 19:52 | 47.54397 | 8.72811 | 14119 ft | 309 kts | 229° |
| 2026-05-07 19:52 | 47.53001 | 8.70405 | 13723 ft | 307 kts | 233° |
| 2026-05-07 19:52 | 47.51699 | 8.67904 | 13291 ft | 306 kts | 231° |
| 2026-05-07 19:52 | 47.50065 | 8.65924 | 12867 ft | 306 kts | 208° |
| 2026-05-07 19:53 | 47.48023 | 8.65067 | 12444 ft | 309 kts | 186° |
| 2026-05-07 19:53 | 47.45894 | 8.65405 | 12023 ft | 313 kts | 165° |
| 2026-05-07 19:53 | 47.43976 | 8.66949 | 11614 ft | 317 kts | 142° |
| 2026-05-07 19:53 | 47.42619 | 8.69459 | 11215 ft | 321 kts | 118° |
| 2026-05-07 19:54 | 47.42012 | 8.72643 | 10805 ft | 324 kts | 95° |
| 2026-05-07 19:54 | 47.42304 | 8.75924 | 10424 ft | 324 kts | 70° |
| 2026-05-07 19:54 | 47.43279 | 8.78841 | 10117 ft | 311 kts | 62° |
| 2026-05-07 19:54 | 47.44280 | 8.81632 | 9487 ft | 305 kts | 62° |
| 2026-05-07 19:55 | 47.45255 | 8.84379 | 8862 ft | 300 kts | 63° |
| 2026-05-07 19:55 | 47.46213 | 8.87091 | 8223 ft | 295 kts | 62° |
| 2026-05-07 19:55 | 47.47153 | 8.89768 | 7540 ft | 292 kts | 63° |
| 2026-05-07 19:55 | 47.48079 | 8.92412 | 6959 ft | 285 kts | 63° |
| 2026-05-07 19:56 | 47.48960 | 8.94911 | 6813 ft | 262 kts | 63° |
| 2026-05-07 19:56 | 47.49732 | 8.97221 | 6656 ft | 242 kts | 72° |
| 2026-05-07 19:56 | 47.49916 | 8.98803 | 6414 ft | 233 kts | 94° |
| 2026-05-07 19:56 | 47.49504 | 9.01062 | 5942 ft | 226 kts | 122° |
| 2026-05-07 19:57 | 47.48469 | 9.02728 | 5758 ft | 223 kts | 148° |
| 2026-05-07 19:57 | 47.47035 | 9.03553 | 5632 ft | 224 kts | 174° |
| 2026-05-07 19:57 | 47.45496 | 9.03382 | 5507 ft | 224 kts | 197° |
| 2026-05-07 19:57 | 47.44099 | 9.02306 | 5372 ft | 226 kts | 220° |
| 2026-05-07 19:58 | 47.43117 | 9.00523 | 5250 ft | 227 kts | 244° |
| 2026-05-07 19:58 | 47.42696 | 8.98286 | 5131 ft | 228 kts | 268° |
| 2026-05-07 19:58 | 47.42806 | 8.95946 | 5032 ft | 228 kts | 277° |
| 2026-05-07 19:58 | 47.42987 | 8.93628 | 5002 ft | 227 kts | 277° |
| 2026-05-07 19:59 | 47.43157 | 8.91380 | 5000 ft | 214 kts | 276° |
| 2026-05-07 19:59 | 47.43317 | 8.89225 | 5003 ft | 208 kts | 276° |
| 2026-05-07 19:59 | 47.43474 | 8.87112 | 5002 ft | 207 kts | 276° |
| 2026-05-07 19:59 | 47.43630 | 8.85000 | 5005 ft | 206 kts | 276° |
| 2026-05-07 20:00 | 47.43785 | 8.82899 | 5006 ft | 206 kts | 276° |
| 2026-05-07 20:00 | 47.43940 | 8.80790 | 4882 ft | 205 kts | 276° |
| 2026-05-07 20:00 | 47.44088 | 8.78775 | 4645 ft | 193 kts | 277° |
| 2026-05-07 20:00 | 47.44229 | 8.76853 | 4337 ft | 182 kts | 277° |
| 2026-05-07 20:01 | 47.44359 | 8.75064 | 4115 ft | 167 kts | 277° |
| 2026-05-07 20:01 | 47.44479 | 8.73408 | 3855 ft | 157 kts | 277° |
| 2026-05-07 20:01 | 47.44593 | 8.71844 | 3619 ft | 151 kts | 278° |
| 2026-05-07 20:01 | 47.44703 | 8.70334 | 3415 ft | 149 kts | 278° |
| 2026-05-07 20:02 | 47.44814 | 8.68805 | 3197 ft | 148 kts | 278° |
| 2026-05-07 20:02 | 47.44923 | 8.67293 | 2978 ft | 147 kts | 278° |
| 2026-05-07 20:02 | 47.45031 | 8.65806 | 2767 ft | 146 kts | 278° |
| 2026-05-07 20:02 | 47.45146 | 8.64327 | 2527 ft | 144 kts | 279° |
| 2026-05-07 20:03 | 47.45264 | 8.62883 | 2321 ft | 143 kts | 278° |
| 2026-05-07 20:03 | 47.45362 | 8.61423 | 2083 ft | 142 kts | 275° |
| 2026-05-07 20:03 | 47.45440 | 8.59974 | 1877 ft | 141 kts | 278° |
| 2026-05-07 20:03 | 47.45559 | 8.58535 | 1699 ft | 141 kts | 278° |
| 2026-05-07 20:04 | 47.45651 | 8.57095 | 1481 ft | 141 kts | 278° |
| 2026-05-07 20:04 | 47.45757 | 8.55732 | 1408 ft | 120 kts | 275° |
| 2026-05-07 20:04 | 47.45813 | 8.54898 | 1390 ft | 44 kts | 275° |
| 2026-05-07 20:04 | 47.45815 | 8.54492 | 1386 ft | 37 kts | 255° |
| 2026-05-07 20:05 | 47.45737 | 8.54235 | 1385 ft | 21 kts | 222° |
| 2026-05-07 20:05 | 47.45633 | 8.54239 | 1385 ft | 12 kts | 136° |
| 2026-05-07 20:05 | 47.45600 | 8.54331 | 1384 ft | 9 kts | 108° |
| 2026-05-07 20:05 | 47.45585 | 8.54406 | 1386 ft | 7 kts | 109° |
| 2026-05-07 20:06 | 47.45566 | 8.54491 | 1388 ft | 14 kts | 107° |
| 2026-05-07 20:06 | 47.45534 | 8.54641 | 1390 ft | 17 kts | 108° |
| 2026-05-07 20:06 | 47.45495 | 8.54818 | 1396 ft | 20 kts | 108° |
| 2026-05-07 20:06 | 47.45443 | 8.55033 | 1402 ft | 23 kts | 109° |
| 2026-05-07 20:07 | 47.45390 | 8.55255 | 1401 ft | 23 kts | 115° |
| 2026-05-07 20:07 | 47.45313 | 8.55465 | 1406 ft | 23 kts | 119° |
| 2026-05-07 20:07 | 47.45271 | 8.55633 | 1409 ft | 15 kts | 96° |
| 2026-05-07 20:07 | 47.45264 | 8.55740 | 1407 ft | 9 kts | 96° |
| 2026-05-07 20:08 | 47.45250 | 8.55810 | 1409 ft | 5 kts | 142° |
| 2026-05-07 20:08 | 47.45218 | 8.55811 | 1410 ft | 4 kts | 190° |
| 2026-05-07 20:08 | 47.45192 | 8.55807 | 1407 ft | 3 kts | 184° |
| 2026-05-07 20:08 | 47.45172 | 8.55805 | 1407 ft | 2 kts | 185° |
| 2026-05-07 20:09 | 47.45167 | 8.55804 | 1407 ft | 0 kts | 185° |
| 2026-05-07 20:19 | 47.45170 | 8.55804 | 1407 ft | 2 kts | 185° |
| 2026-05-07 20:19 | 47.45196 | 8.55806 | 1407 ft | 4 kts | 180° |
| 2026-05-07 20:19 | 47.45221 | 8.55809 | 1407 ft | 4 kts | 203° |
| 2026-05-07 20:20 | 47.45242 | 8.55828 | 1412 ft | 4 kts | 229° |
| 2026-05-07 20:20 | 47.45254 | 8.55861 | 1412 ft | 4 kts | 267° |
| 2026-05-07 20:20 | 47.45254 | 8.55878 | 1414 ft | 0 kts | 276° |
| 2026-05-07 20:22 | 47.45255 | 8.55861 | 1412 ft | 5 kts | 276° |
| 2026-05-07 20:23 | 47.45259 | 8.55815 | 1410 ft | 4 kts | 276° |
| 2026-05-07 20:23 | 47.45261 | 8.55779 | 1407 ft | 5 kts | 276° |
| 2026-05-07 20:23 | 47.45266 | 8.55724 | 1407 ft | 6 kts | 276° |
| 2026-05-07 20:23 | 47.45271 | 8.55659 | 1407 ft | 7 kts | 276° |
| 2026-05-07 20:24 | 47.45285 | 8.55581 | 1408 ft | 9 kts | 308° |
| 2026-05-07 20:24 | 47.45348 | 8.55528 | 1406 ft | 12 kts | 336° |
| 2026-05-07 20:24 | 47.45430 | 8.55471 | 1412 ft | 13 kts | 333° |
| 2026-05-07 20:24 | 47.45500 | 8.55442 | 1407 ft | 10 kts | 11° |
| 2026-05-07 20:25 | 47.45525 | 8.55513 | 1405 ft | 6 kts | 89° |
| 2026-05-07 20:25 | 47.45522 | 8.55557 | 1406 ft | 3 kts | 96° |
| 2026-05-07 20:25 | 47.45520 | 8.55579 | 1412 ft | 5 kts | 96° |
| 2026-05-07 20:25 | 47.45516 | 8.55634 | 1414 ft | 7 kts | 96° |
| 2026-05-07 20:26 | 47.45510 | 8.55729 | 1407 ft | 11 kts | 96° |
| 2026-05-07 20:26 | 47.45500 | 8.55857 | 1410 ft | 13 kts | 97° |
| 2026-05-07 20:26 | 47.45491 | 8.55986 | 1407 ft | 12 kts | 95° |
| 2026-05-07 20:26 | 47.45483 | 8.56108 | 1407 ft | 10 kts | 95° |
| 2026-05-07 20:27 | 47.45481 | 8.56207 | 1408 ft | 9 kts | 75° |
| 2026-05-07 20:27 | 47.45513 | 8.56245 | 1411 ft | 4 kts | 17° |
| 2026-05-07 20:27 | 47.45534 | 8.56250 | 1412 ft | 5 kts | 8° |
| 2026-05-07 20:27 | 47.45564 | 8.56255 | 1415 ft | 4 kts | 6° |
| 2026-05-07 20:28 | 47.45607 | 8.56261 | 1412 ft | 9 kts | 5° |
| 2026-05-07 20:28 | 47.45685 | 8.56274 | 1413 ft | 14 kts | 6° |
| 2026-05-07 20:28 | 47.45777 | 8.56287 | 1417 ft | 13 kts | 6° |
| 2026-05-07 20:28 | 47.45873 | 8.56303 | 1414 ft | 16 kts | 5° |
| 2026-05-07 20:29 | 47.45993 | 8.56320 | 1412 ft | 19 kts | 7° |
| 2026-05-07 20:29 | 47.46122 | 8.56342 | 1414 ft | 20 kts | 6° |
| 2026-05-07 20:29 | 47.46221 | 8.56320 | 1413 ft | 8 kts | 322° |
| 2026-05-07 20:29 | 47.46235 | 8.56302 | 1412 ft | 0 kts | 316° |
| 2026-05-07 20:30 | 47.46400 | 8.56077 | 1405 ft | 72 kts | 317° |
| 2026-05-07 20:30 | 47.46929 | 8.55355 | 1387 ft | 132 kts | 317° |
| 2026-05-07 20:30 | 47.47699 | 8.54328 | 1626 ft | 154 kts | 321° |
| 2026-05-07 20:30 | 47.48488 | 8.53270 | 2353 ft | 150 kts | 319° |
| 2026-05-07 20:31 | 47.49265 | 8.52231 | 2944 ft | 152 kts | 326° |
| 2026-05-07 20:31 | 47.50174 | 8.51382 | 3305 ft | 164 kts | 335° |
| 2026-05-07 20:31 | 47.51260 | 8.50510 | 3537 ft | 191 kts | 334° |
| 2026-05-07 20:31 | 47.52519 | 8.49678 | 3838 ft | 212 kts | 351° |
| 2026-05-07 20:32 | 47.53975 | 8.49920 | 4406 ft | 217 kts | 29° |
| 2026-05-07 20:32 | 47.55018 | 8.51500 | 5107 ft | 220 kts | 67° |
| 2026-05-07 20:32 | 47.55413 | 8.53711 | 5840 ft | 224 kts | 82° |
| 2026-05-07 20:32 | 47.55624 | 8.56043 | 6527 ft | 233 kts | 84° |
| 2026-05-07 20:33 | 47.55827 | 8.58448 | 7228 ft | 238 kts | 83° |
| 2026-05-07 20:33 | 47.55800 | 8.60982 | 7621 ft | 258 kts | 107° |
| 2026-05-07 20:33 | 47.55192 | 8.63601 | 8027 ft | 279 kts | 111° |
| 2026-05-07 20:33 | 47.54512 | 8.66345 | 8728 ft | 288 kts | 112° |
| 2026-05-07 20:34 | 47.53813 | 8.69160 | 9519 ft | 295 kts | 112° |
| 2026-05-07 20:34 | 47.53097 | 8.72046 | 10238 ft | 304 kts | 112° |
| 2026-05-07 20:34 | 47.52342 | 8.75094 | 10517 ft | 328 kts | 112° |
| 2026-05-07 20:34 | 47.51539 | 8.78363 | 10855 ft | 346 kts | 112° |
| 2026-05-07 20:35 | 47.50715 | 8.81744 | 11522 ft | 353 kts | 111° |
| 2026-05-07 20:35 | 47.49877 | 8.85187 | 12264 ft | 357 kts | 112° |
| 2026-05-07 20:35 | 47.49030 | 8.88660 | 13010 ft | 362 kts | 112° |
| 2026-05-07 20:35 | 47.48170 | 8.92184 | 13750 ft | 366 kts | 112° |
| 2026-05-07 20:36 | 47.47300 | 8.95741 | 14405 ft | 370 kts | 112° |
| 2026-05-07 20:36 | 47.46422 | 8.99315 | 15068 ft | 373 kts | 112° |
| 2026-05-07 20:36 | 47.45531 | 9.02930 | 15720 ft | 376 kts | 112° |
| 2026-05-07 20:36 | 47.44630 | 9.06579 | 16390 ft | 379 kts | 112° |
| 2026-05-07 20:37 | 47.43721 | 9.10243 | 17034 ft | 382 kts | 111° |
| 2026-05-07 20:37 | 47.42895 | 9.13975 | 17679 ft | 386 kts | 104° |
| 2026-05-07 20:37 | 47.42548 | 9.17919 | 18290 ft | 391 kts | 92° |
| 2026-05-07 20:37 | 47.42762 | 9.21893 | 18859 ft | 395 kts | 79° |
| 2026-05-07 20:38 | 47.43558 | 9.25823 | 19421 ft | 398 kts | 66° |
| 2026-05-07 20:38 | 47.44835 | 9.29407 | 19964 ft | 401 kts | 59° |
| 2026-05-07 20:38 | 47.46284 | 9.33106 | 20556 ft | 404 kts | 58° |
| 2026-05-07 20:38 | 47.47871 | 9.36374 | 21077 ft | 406 kts | 48° |
| 2026-05-07 20:39 | 47.49903 | 9.39292 | 21638 ft | 408 kts | 37° |
| 2026-05-07 20:39 | 47.52260 | 9.41608 | 22180 ft | 409 kts | 26° |
| 2026-05-07 20:39 | 47.54871 | 9.43249 | 22712 ft | 409 kts | 16° |
| 2026-05-07 20:39 | 47.57581 | 9.44502 | 23235 ft | 411 kts | 11° |
| 2026-05-07 20:40 | 47.60405 | 9.45208 | 23726 ft | 411 kts | 2° |
| 2026-05-07 20:40 | 47.63271 | 9.45384 | 24156 ft | 413 kts | 359° |
| 2026-05-07 20:40 | 47.66144 | 9.45525 | 24565 ft | 415 kts | 359° |
| 2026-05-07 20:40 | 47.69043 | 9.45674 | 24978 ft | 417 kts | 359° |
| 2026-05-07 20:41 | 47.71950 | 9.45834 | 25389 ft | 420 kts | 359° |
| 2026-05-07 20:41 | 47.74877 | 9.45999 | 25782 ft | 422 kts | 359° |
| 2026-05-07 20:41 | 47.77810 | 9.46161 | 26184 ft | 424 kts | 359° |
| 2026-05-07 20:41 | 47.80768 | 9.46319 | 26571 ft | 426 kts | 358° |
| 2026-05-07 20:42 | 47.83733 | 9.46398 | 26978 ft | 427 kts | 357° |
| 2026-05-07 20:42 | 47.86708 | 9.46399 | 27372 ft | 428 kts | 356° |
| 2026-05-07 20:42 | 47.89692 | 9.46356 | 27755 ft | 430 kts | 356° |
| 2026-05-07 20:42 | 47.92692 | 9.46300 | 28128 ft | 432 kts | 356° |
| 2026-05-07 20:43 | 47.95703 | 9.46254 | 28480 ft | 434 kts | 356° |
| 2026-05-07 20:43 | 47.98727 | 9.46227 | 28830 ft | 436 kts | 356° |
| 2026-05-07 20:43 | 48.01768 | 9.46214 | 29170 ft | 438 kts | 356° |
| 2026-05-07 20:43 | 48.04817 | 9.46209 | 29506 ft | 440 kts | 356° |
| 2026-05-07 20:44 | 48.07879 | 9.46207 | 29853 ft | 440 kts | 357° |
| 2026-05-07 20:44 | 48.10944 | 9.46204 | 30172 ft | 442 kts | 356° |
| 2026-05-07 20:44 | 48.12981 | 9.46202 | 30335 ft | 443 kts | 356° |
| 2026-05-07 20:44 | 48.16073 | 9.46199 | 30570 ft | 445 kts | 356° |
| 2026-05-07 20:45 | 48.19172 | 9.46198 | 30788 ft | 447 kts | 356° |
| 2026-05-07 20:45 | 48.22286 | 9.46205 | 31005 ft | 448 kts | 356° |
| 2026-05-07 20:45 | 48.25417 | 9.46212 | 31248 ft | 449 kts | 356° |
| 2026-05-07 20:45 | 48.29553 | 9.46224 | 31657 ft | 449 kts | 357° |
| 2026-05-07 20:46 | 48.32678 | 9.46230 | 31942 ft | 449 kts | 356° |
| 2026-05-07 20:46 | 48.34783 | 9.46232 | 32138 ft | 449 kts | 356° |
| 2026-05-07 20:46 | 48.37903 | 9.46231 | 32423 ft | 448 kts | 356° |
| 2026-05-07 20:46 | 48.41013 | 9.46225 | 32728 ft | 448 kts | 356° |
| 2026-05-07 20:47 | 48.44144 | 9.46268 | 33022 ft | 449 kts | 358° |
| 2026-05-07 20:47 | 48.47272 | 9.46439 | 33314 ft | 449 kts | 359° |
| 2026-05-07 20:47 | 48.50390 | 9.46699 | 33604 ft | 450 kts | 360° |
| 2026-05-07 20:47 | 48.53516 | 9.47001 | 33892 ft | 450 kts | 360° |
| 2026-05-07 20:48 | 48.56637 | 9.47308 | 34166 ft | 450 kts | 360° |
| 2026-05-07 20:48 | 48.59757 | 9.47599 | 34407 ft | 450 kts | 359° |
| 2026-05-07 20:48 | 48.62885 | 9.47865 | 34634 ft | 450 kts | 359° |
| 2026-05-07 20:48 | 48.66011 | 9.48112 | 34863 ft | 450 kts | 359° |
| 2026-05-07 20:49 | 48.69099 | 9.48345 | 35092 ft | 450 kts | 359° |
| 2026-05-07 20:49 | 48.72230 | 9.48580 | 35322 ft | 450 kts | 359° |
| 2026-05-07 20:49 | 48.75354 | 9.48819 | 35525 ft | 450 kts | 359° |
| 2026-05-07 20:49 | 48.78487 | 9.49061 | 35734 ft | 451 kts | 359° |
| 2026-05-07 20:50 | 48.81618 | 9.49305 | 35938 ft | 451 kts | 359° |
| 2026-05-07 20:50 | 48.84758 | 9.49548 | 36125 ft | 451 kts | 359° |
| 2026-05-07 20:50 | 48.87901 | 9.49793 | 36317 ft | 452 kts | 359° |
| 2026-05-07 20:50 | 48.91038 | 9.50043 | 36495 ft | 452 kts | 359° |
| 2026-05-07 20:51 | 48.94178 | 9.50298 | 36706 ft | 452 kts | 360° |
| 2026-05-07 20:51 | 48.97403 | 9.50562 | 36904 ft | 452 kts | 360° |
| 2026-05-07 20:51 | 49.00471 | 9.50812 | 37074 ft | 452 kts | 360° |
| 2026-05-07 20:51 | 49.03604 | 9.51062 | 37251 ft | 452 kts | 359° |
| 2026-05-07 20:52 | 49.06751 | 9.51306 | 37427 ft | 453 kts | 359° |
| 2026-05-07 20:52 | 49.09895 | 9.51550 | 37594 ft | 453 kts | 360° |
| 2026-05-07 20:52 | 49.13039 | 9.51799 | 37758 ft | 453 kts | 360° |
| 2026-05-07 20:52 | 49.16182 | 9.52050 | 37938 ft | 453 kts | 360° |
| 2026-05-07 20:53 | 49.19338 | 9.52301 | 38069 ft | 453 kts | 360° |
| 2026-05-07 20:53 | 49.25639 | 9.52811 | 38086 ft | 454 kts | 360° |
| 2026-05-07 20:54 | 49.31943 | 9.53327 | 38086 ft | 454 kts | 360° |
| 2026-05-07 20:54 | 49.38246 | 9.53830 | 38088 ft | 454 kts | 360° |
| 2026-05-07 20:55 | 49.44558 | 9.54342 | 38087 ft | 454 kts | 360° |
| 2026-05-07 20:55 | 49.50861 | 9.54854 | 38091 ft | 454 kts | 360° |
| 2026-05-07 20:56 | 49.57175 | 9.55362 | 38097 ft | 454 kts | 360° |
| 2026-05-07 20:56 | 49.63491 | 9.55874 | 38104 ft | 455 kts | 0° |
| 2026-05-07 20:57 | 49.69809 | 9.56385 | 38104 ft | 455 kts | 0° |
| 2026-05-07 20:57 | 49.76135 | 9.56899 | 38109 ft | 455 kts | 0° |
| 2026-05-07 20:58 | 49.82466 | 9.57415 | 38123 ft | 456 kts | 0° |
| 2026-05-07 20:58 | 49.88795 | 9.57945 | 38119 ft | 456 kts | 0° |
| 2026-05-07 20:59 | 49.95086 | 9.58467 | 38119 ft | 456 kts | 0° |
| 2026-05-07 20:59 | 50.01461 | 9.58991 | 38117 ft | 456 kts | 0° |
| 2026-05-07 21:00 | 50.07746 | 9.59505 | 38125 ft | 456 kts | 0° |
| 2026-05-07 21:00 | 50.14080 | 9.60038 | 38120 ft | 456 kts | 0° |
| 2026-05-07 21:01 | 50.20417 | 9.60567 | 38124 ft | 456 kts | 0° |
| 2026-05-07 21:01 | 50.26754 | 9.61095 | 38127 ft | 456 kts | 0° |
| 2026-05-07 21:02 | 50.33083 | 9.61629 | 38127 ft | 456 kts | 0° |
| 2026-05-07 21:02 | 50.39420 | 9.62167 | 38127 ft | 456 kts | 0° |
| 2026-05-07 21:03 | 50.45748 | 9.62707 | 38122 ft | 456 kts | 0° |
| 2026-05-07 21:03 | 50.52082 | 9.63237 | 38135 ft | 456 kts | 1° |
| 2026-05-07 21:04 | 50.58411 | 9.63772 | 38129 ft | 455 kts | 1° |
| 2026-05-07 21:04 | 50.64735 | 9.64322 | 38128 ft | 455 kts | 1° |
| 2026-05-07 21:05 | 50.70263 | 9.64792 | 38132 ft | 455 kts | 1° |
| 2026-05-07 21:05 | 50.76535 | 9.65312 | 38133 ft | 455 kts | 0° |
| 2026-05-07 21:06 | 50.82856 | 9.65848 | 38131 ft | 455 kts | 1° |
| 2026-05-07 21:06 | 50.89180 | 9.66402 | 38130 ft | 455 kts | 1° |
| 2026-05-07 21:07 | 50.95497 | 9.66948 | 38136 ft | 455 kts | 1° |